Time;durP1;ratioP1;P1;durP2;ratioP2;P2;SDS_P1;SDS_P2;PMS_P1;PMS_P2;Temp;Humidity;BMP_temperature;BMP_pressure;BME280_temperature;BME280_humidity;BME280_pressure;Samples;Min_cycle;Max_cycle;Signal;HPM_P1;HPM_P2
2023/02/12 00:02:11;;;;;;;33.20;29.90;;;7.30;99.90;;;;;;10383964;28;20314;-80
2023/02/12 00:07:14;;;;;;;35.90;29.40;;;7.30;99.90;;;;;;10391399;28;20254;-80
2023/02/12 00:12:17;;;;;;;33.23;29.93;;;7.30;99.90;;;;;;10394567;28;20298;-80
2023/02/12 00:17:19;;;;;;;33.47;29.83;;;7.30;99.90;;;;;;10399400;28;20696;-80
2023/02/12 00:22:21;;;;;;;35.23;31.43;;;7.30;99.90;;;;;;10395438;28;20312;-80
2023/02/12 00:27:25;;;;;;;37.07;33.17;;;7.30;99.90;;;;;;10403116;28;20234;-80
2023/02/12 00:32:27;;;;;;;38.53;31.87;;;7.40;99.90;;;;;;10403409;28;20702;-80
2023/02/12 00:37:29;;;;;;;34.60;30.90;;;7.30;99.90;;;;;;10425285;28;20248;-80
2023/02/12 00:42:33;;;;;;;33.00;29.67;;;7.30;99.90;;;;;;10382364;28;20233;-79
2023/02/12 00:47:35;;;;;;;32.70;29.30;;;7.40;99.90;;;;;;10424428;28;20211;-80
2023/02/12 00:52:37;;;;;;;33.70;30.13;;;7.40;99.90;;;;;;10446076;28;20225;-80
2023/02/12 00:57:40;;;;;;;33.03;29.47;;;7.40;99.90;;;;;;10434601;28;20201;-80
2023/02/12 01:02:42;;;;;;;32.80;29.40;;;7.40;99.90;;;;;;10437031;28;20289;-80
2023/02/12 01:07:48;;;;;;;35.90;32.10;;;7.30;99.90;;;;;;10434093;28;20218;-80
2023/02/12 01:12:52;;;;;;;33.23;29.80;;;7.30;99.90;;;;;;10430432;28;20271;-80
2023/02/12 01:17:54;;;;;;;35.10;31.30;;;7.30;99.90;;;;;;10465183;28;20198;-80
2023/02/12 01:22:57;;;;;;;34.03;30.50;;;7.30;99.90;;;;;;10457449;28;20220;-81
2023/02/12 01:28:00;;;;;;;33.03;29.73;;;7.30;99.90;;;;;;10440615;28;20223;-81
2023/02/12 01:33:02;;;;;;;32.43;29.10;;;7.20;99.90;;;;;;10408742;28;20217;-79
2023/02/12 01:38:04;;;;;;;32.73;29.40;;;7.30;99.90;;;;;;10443884;28;20575;-79
2023/02/12 01:43:11;;;;;;;34.47;31.00;;;7.30;99.90;;;;;;10449585;28;20741;-79
2023/02/12 01:48:15;;;;;;;32.53;29.20;;;7.30;99.90;;;;;;10447920;28;20259;-79
2023/02/12 01:53:20;;;;;;;34.90;31.20;;;7.30;99.90;;;;;;10422382;28;20352;-79
2023/02/12 01:58:25;;;;;;;33.60;29.80;;;7.30;99.90;;;;;;10443056;28;20226;-79
2023/02/12 02:03:27;;;;;;;36.17;31.80;;;7.30;99.90;;;;;;10426252;28;20224;-79
2023/02/12 02:08:29;;;;;;;34.60;30.97;;;7.30;99.90;;;;;;10445619;28;20229;-80
2023/02/12 02:18:56;;;;;;;35.27;31.60;;;7.30;99.90;;;;;;10423627;28;20194;-79
2023/02/12 02:24:31;;;;;;;34.53;30.90;;;7.30;99.90;;;;;;10452423;28;20229;-79
2023/02/12 02:29:57;;;;;;;34.53;31.00;;;7.20;99.90;;;;;;10421745;28;20225;-79
2023/02/12 02:35:10;;;;;;;34.93;30.77;;;7.20;99.90;;;;;;10431219;28;20287;-80
2023/02/12 02:40:17;;;;;;;34.23;30.53;;;7.40;99.90;;;;;;10436758;28;20566;-80
2023/02/12 02:45:26;;;;;;;34.90;31.20;;;7.30;99.90;;;;;;10427276;28;20293;-79
2023/02/12 02:50:31;;;;;;;35.97;32.20;;;7.20;99.90;;;;;;10441965;28;20602;-80
2023/02/12 02:55:40;;;;;;;34.47;30.60;;;7.20;99.90;;;;;;10432656;28;20767;-80
2023/02/12 03:00:46;;;;;;;36.10;31.57;;;7.20;99.90;;;;;;10434639;28;20718;-81
2023/02/12 03:05:52;;;;;;;34.80;31.00;;;7.30;99.90;;;;;;10434612;28;20625;-80
2023/02/12 03:10:58;;;;;;;35.03;31.13;;;7.20;99.90;;;;;;10392904;28;20204;-79
2023/02/12 03:16:05;;;;;;;35.90;32.23;;;7.30;99.90;;;;;;10441890;28;20220;-79
2023/02/12 03:21:12;;;;;;;33.57;30.03;;;7.30;99.90;;;;;;10416133;28;20198;-80
2023/02/12 03:26:19;;;;;;;33.33;29.83;;;7.30;99.90;;;;;;10445123;28;20210;-81
2023/02/12 03:31:31;;;;;;;35.37;31.57;;;7.30;99.90;;;;;;10444734;28;20199;-79
2023/02/12 03:36:44;;;;;;;35.47;31.60;;;7.30;99.90;;;;;;10433086;28;20197;-79
2023/02/12 03:41:49;;;;;;;35.80;32.10;;;7.30;99.90;;;;;;10450096;28;20238;-80
2023/02/12 03:47:02;;;;;;;35.03;31.23;;;7.30;99.90;;;;;;10436293;28;20213;-80
2023/02/12 03:52:05;;;;;;;40.50;33.73;;;7.20;99.90;;;;;;10433093;28;20733;-80
2023/02/12 03:57:11;;;;;;;35.00;31.27;;;7.20;99.90;;;;;;10418141;28;20198;-80
2023/02/12 04:02:15;;;;;;;35.90;32.10;;;7.20;99.90;;;;;;10425014;28;20228;-82
2023/02/12 04:07:18;;;;;;;37.97;33.83;;;7.20;99.90;;;;;;10439258;28;20237;-82
2023/02/12 04:12:35;;;;;;;36.60;32.30;;;7.20;99.90;;;;;;10435387;28;20218;-81
2023/02/12 04:17:47;;;;;;;36.50;32.77;;;7.20;99.90;;;;;;10388947;28;20215;-82
2023/02/12 04:22:58;;;;;;;35.57;31.87;;;7.20;99.90;;;;;;10414382;28;20214;-82
2023/02/12 04:28:10;;;;;;;35.20;31.50;;;7.30;99.90;;;;;;10420768;28;20625;-80
2023/02/12 04:33:18;;;;;;;37.07;32.93;;;7.30;99.90;;;;;;10415761;28;20486;-82
2023/02/12 04:38:26;;;;;;;36.20;30.47;;;7.30;99.90;;;;;;10423358;28;20671;-82
2023/02/12 04:43:29;;;;;;;37.80;32.17;;;7.30;99.90;;;;;;10437196;28;20237;-82
2023/02/12 04:48:33;;;;;;;34.00;30.50;;;7.30;99.90;;;;;;10418369;28;20596;-81
2023/02/12 04:53:37;;;;;;;34.57;30.87;;;7.30;99.90;;;;;;10427274;28;20312;-80
2023/02/12 04:58:39;;;;;;;37.60;33.60;;;7.30;99.90;;;;;;10410872;28;20203;-82
2023/02/12 05:03:41;;;;;;;36.47;32.50;;;7.20;99.90;;;;;;10430893;28;20218;-82
2023/02/12 05:08:44;;;;;;;36.23;32.50;;;7.30;99.90;;;;;;10425143;28;20282;-82
2023/02/12 05:13:48;;;;;;;37.10;31.80;;;7.30;99.90;;;;;;10422786;28;20303;-82
2023/02/12 05:18:50;;;;;;;34.43;30.80;;;7.20;99.90;;;;;;10417201;28;20195;-80
2023/02/12 05:23:54;;;;;;;35.37;31.87;;;7.30;99.90;;;;;;10447086;28;20220;-83
2023/02/12 05:28:56;;;;;;;34.23;30.50;;;7.30;99.90;;;;;;10455557;28;20245;-82
2023/02/12 05:33:58;;;;;;;33.70;30.20;;;7.30;99.90;;;;;;10425792;28;20671;-82
2023/02/12 05:39:02;;;;;;;39.10;32.80;;;7.30;99.90;;;;;;10450756;28;20263;-82
2023/02/12 05:44:05;;;;;;;36.67;32.67;;;7.20;99.90;;;;;;10441383;28;20244;-80
2023/02/12 05:49:08;;;;;;;36.60;32.83;;;7.30;99.90;;;;;;10442823;28;20220;-82
2023/02/12 05:54:12;;;;;;;36.57;32.80;;;7.30;99.90;;;;;;10441814;28;20321;-82
2023/02/12 05:59:17;;;;;;;34.30;30.70;;;7.30;99.90;;;;;;10440955;28;20219;-83
2023/02/12 06:04:22;;;;;;;37.03;33.30;;;7.40;99.90;;;;;;10409626;28;20268;-81
2023/02/12 06:09:25;;;;;;;34.40;30.77;;;7.30;99.90;;;;;;10441071;28;20230;-82
2023/02/12 06:14:27;;;;;;;35.27;31.23;;;7.30;99.90;;;;;;10438194;28;20210;-82
2023/02/12 06:19:30;;;;;;;39.13;34.97;;;7.30;99.90;;;;;;10439312;28;20238;-82
2023/02/12 06:24:33;;;;;;;36.67;32.70;;;7.20;99.90;;;;;;10422158;28;20249;-82
2023/02/12 06:29:35;;;;;;;37.80;33.67;;;7.30;99.90;;;;;;10439206;28;20694;-82
2023/02/12 06:34:38;;;;;;;38.13;33.60;;;7.20;99.90;;;;;;10424838;28;20213;-82
2023/02/12 06:39:41;;;;;;;41.60;35.23;;;7.10;99.90;;;;;;10441246;28;20211;-80
2023/02/12 06:44:44;;;;;;;37.57;33.53;;;7.20;99.90;;;;;;10440291;28;20214;-82
2023/02/12 06:49:46;;;;;;;39.20;35.20;;;7.20;99.90;;;;;;10456037;28;20560;-80
2023/02/12 06:54:49;;;;;;;40.33;36.03;;;7.20;99.90;;;;;;10459764;28;20224;-79
2023/02/12 06:59:51;;;;;;;38.73;34.60;;;7.20;99.90;;;;;;10435075;28;20285;-80
2023/02/12 07:04:54;;;;;;;39.07;34.87;;;7.20;99.90;;;;;;10434419;28;20218;-81
2023/02/12 07:09:57;;;;;;;39.80;35.70;;;7.20;99.90;;;;;;10418899;28;20216;-81
2023/02/12 07:14:59;;;;;;;40.23;36.10;;;7.20;99.90;;;;;;10420957;28;20221;-80
2023/02/12 07:20:01;;;;;;;40.50;34.60;;;7.30;99.90;;;;;;10444286;28;20252;-81
2023/02/12 07:25:05;;;;;;;38.43;34.23;;;7.40;99.90;;;;;;10430424;28;20223;-80
2023/02/12 07:30:09;;;;;;;39.40;35.23;;;7.40;99.90;;;;;;10439292;28;20237;-80
2023/02/12 07:35:11;;;;;;;42.07;37.57;;;7.50;99.90;;;;;;10450683;28;20592;-80
2023/02/12 07:40:14;;;;;;;37.90;34.00;;;7.50;99.90;;;;;;10429124;28;20219;-81
2023/02/12 07:45:17;;;;;;;40.40;35.67;;;7.60;99.90;;;;;;10453524;28;20248;-81
2023/02/12 07:50:19;;;;;;;37.60;33.60;;;7.70;99.90;;;;;;10427136;28;20229;-80
2023/02/12 07:55:22;;;;;;;38.60;34.60;;;7.70;99.90;;;;;;10484343;22;20219;-78
2023/02/12 08:00:24;;;;;;;38.77;34.80;;;7.80;99.90;;;;;;10501075;28;20278;-79
2023/02/12 08:05:28;;;;;;;40.70;36.40;;;7.90;99.90;;;;;;10503218;28;20212;-79
2023/02/12 08:10:31;;;;;;;41.47;37.37;;;7.90;99.90;;;;;;10477343;28;20279;-77
2023/02/12 08:15:34;;;;;;;39.80;35.80;;;8.00;99.90;;;;;;10474783;28;20230;-78
2023/02/12 08:20:36;;;;;;;40.53;36.33;;;8.00;99.90;;;;;;10500904;28;20217;-79
2023/02/12 08:25:39;;;;;;;40.43;36.20;;;8.10;99.70;;;;;;10504785;28;20273;-79
2023/02/12 08:30:41;;;;;;;40.97;36.57;;;8.20;99.70;;;;;;10499036;28;20241;-79
2023/02/12 08:35:43;;;;;;;41.33;36.97;;;8.30;99.20;;;;;;10499862;28;20227;-80
2023/02/12 08:40:47;;;;;;;41.50;37.10;;;8.30;99.20;;;;;;10500341;28;20198;-78
2023/02/12 08:45:49;;;;;;;45.20;40.20;;;8.40;99.30;;;;;;10472543;28;20263;-78
2023/02/12 08:50:51;;;;;;;44.80;39.63;;;8.40;99.40;;;;;;10492201;28;20216;-79
2023/02/12 08:55:54;;;;;;;46.93;41.87;;;8.50;99.50;;;;;;10509828;28;20220;-78
2023/02/12 09:00:56;;;;;;;47.20;39.07;;;8.50;99.50;;;;;;10509748;28;20619;-78
2023/02/12 09:05:58;;;;;;;46.00;40.57;;;8.60;99.40;;;;;;10508338;28;20217;-77
2023/02/12 09:11:07;;;;;;;42.70;37.97;;;8.70;99.60;;;;;;10478050;28;20258;-78
2023/02/12 09:16:09;;;;;;;44.00;39.33;;;8.80;99.60;;;;;;10474432;28;20213;-78
2023/02/12 09:21:14;;;;;;;38.97;34.77;;;8.90;99.80;;;;;;10489041;28;20220;-78
2023/02/12 09:26:20;;;;;;;42.13;37.60;;;8.90;99.80;;;;;;10506484;28;20254;-78
2023/02/12 09:31:25;;;;;;;41.90;37.40;;;9.10;99.70;;;;;;10496211;28;20199;-78
2023/02/12 09:36:28;;;;;;;40.97;36.67;;;9.10;99.30;;;;;;10507405;28;20219;-78
2023/02/12 09:42:03;;;;;;;41.43;37.13;;;9.20;99.40;;;;;;10498145;28;20217;-78
2023/02/12 09:47:13;;;;;;;40.17;35.87;;;9.20;99.40;;;;;;10492126;28;20241;-77
2023/02/12 09:52:17;;;;;;;43.00;38.70;;;9.40;99.20;;;;;;10482414;28;20213;-77
2023/02/12 09:57:34;;;;;;;43.20;38.50;;;9.40;99.20;;;;;;10486287;28;20240;-79
2023/02/12 10:02:52;;;;;;;45.13;38.10;;;9.50;99.20;;;;;;10498444;28;20224;-80
2023/02/12 10:08:15;;;;;;;41.93;37.00;;;9.60;99.20;;;;;;10508667;28;20283;-81
2023/02/12 10:13:31;;;;;;;37.60;33.60;;;9.70;99.00;;;;;;10491115;28;20224;-81
2023/02/12 10:20:19;;;;;;;;;;;;;;;;;;;;;
2023/02/12 10:25:52;;;;;;;38.70;34.50;;;9.90;98.90;;;;;;10336830;28;20239;-79
2023/02/12 10:31:07;;;;;;;40.67;36.27;;;9.90;98.90;;;;;;10362034;28;20216;-80
2023/02/12 10:36:23;;;;;;;35.73;32.13;;;10.00;98.40;;;;;;10489535;28;20256;-79
2023/02/12 10:41:36;;;;;;;29.93;26.60;;;10.10;98.30;;;;;;10480529;28;20219;-79
2023/02/12 10:59:04;;;;;;;28.13;25.30;;;10.20;98.70;;;;;;11110234;22;20235;-79
2023/02/12 11:04:55;;;;;;;34.80;25.10;;;10.30;98.70;;;;;;10549254;28;20706;-81
2023/02/12 11:27:32;;;;;;;23.83;21.50;;;10.40;98.40;;;;;;8564871;26;20223;-78
2023/02/12 11:32:37;;;;;;;20.90;18.90;;;10.50;98.30;;;;;;10450827;28;20222;-79
2023/02/12 11:37:46;;;;;;;18.57;16.67;;;10.50;98.10;;;;;;10445486;28;20205;-80
2023/02/12 11:42:56;;;;;;;18.33;16.37;;;10.50;98.40;;;;;;10507218;28;20215;-81
2023/02/12 11:47:58;;;;;;;12.33;11.20;;;10.40;98.50;;;;;;10481945;28;20208;-79
2023/02/12 11:53:08;;;;;;;10.47;9.47;;;10.50;98.60;;;;;;10477965;28;20216;-81
2023/02/12 11:58:17;;;;;;;10.60;9.60;;;10.50;98.50;;;;;;10471490;28;20249;-79
2023/02/12 12:03:38;;;;;;;10.87;9.87;;;10.60;98.70;;;;;;10513373;28;20220;-79
2023/02/12 12:08:45;;;;;;;10.57;9.57;;;10.60;98.80;;;;;;10530417;28;20214;-79
2023/02/12 12:13:53;;;;;;;10.73;9.67;;;10.70;98.50;;;;;;10527899;28;20277;-80
2023/02/12 12:24:24;;;;;;;11.97;10.77;;;10.80;98.60;;;;;;10482302;28;20735;-79
2023/02/12 12:29:41;;;;;;;11.53;10.43;;;10.80;98.70;;;;;;10501821;28;20221;-79
2023/02/12 12:34:44;;;;;;;11.00;9.97;;;10.80;98.20;;;;;;10479101;28;20220;-80
2023/02/12 12:40:00;;;;;;;11.50;10.40;;;10.80;98.40;;;;;;10507013;28;20213;-79
2023/02/12 12:45:16;;;;;;;11.27;10.17;;;10.80;98.10;;;;;;10500152;28;20223;-78
2023/02/12 12:50:42;;;;;;;10.13;9.20;;;10.70;98.60;;;;;;10509978;28;20278;-79
2023/02/12 12:55:59;;;;;;;10.80;9.80;;;10.70;98.40;;;;;;10511768;28;20222;-79
2023/02/12 13:01:15;;;;;;;10.13;9.13;;;10.60;98.50;;;;;;10502153;28;20734;-78
2023/02/12 13:06:34;;;;;;;10.97;9.97;;;10.50;98.40;;;;;;10485192;28;20228;-78
2023/02/12 13:11:44;;;;;;;10.23;9.33;;;10.30;98.70;;;;;;10516554;28;20270;-78
2023/02/12 13:16:54;;;;;;;10.43;9.53;;;10.20;99.10;;;;;;10468218;28;20212;-78
2023/02/12 13:22:06;;;;;;;11.40;10.40;;;10.10;99.20;;;;;;10504512;28;20225;-79
2023/02/12 13:27:14;;;;;;;10.97;9.90;;;10.00;99.20;;;;;;10484319;28;20206;-79
2023/02/12 13:32:28;;;;;;;11.17;10.10;;;9.90;99.90;;;;;;10503930;28;20220;-79
2023/02/12 13:37:37;;;;;;;10.23;9.33;;;9.90;99.90;;;;;;10486639;28;20260;-78
2023/02/12 13:42:47;;;;;;;9.97;9.03;;;9.80;99.90;;;;;;10486286;28;20701;-78
2023/02/12 13:48:05;;;;;;;9.77;8.57;;;9.80;99.90;;;;;;10497409;28;20625;-77
2023/02/12 13:53:18;;;;;;;8.57;7.80;;;9.80;99.90;;;;;;10475571;28;20233;-80
2023/02/12 13:58:40;;;;;;;7.87;7.17;;;9.80;99.90;;;;;;10480524;28;20323;-78
2023/02/12 14:03:43;;;;;;;7.33;6.63;;;9.80;99.90;;;;;;10502994;28;20620;-79
2023/02/12 14:08:50;;;;;;;13.47;12.07;;;9.70;99.90;;;;;;10479891;28;20224;-77
2023/02/12 14:13:57;;;;;;;7.13;6.53;;;9.70;99.90;;;;;;10519557;28;20245;-77
2023/02/12 14:19:33;;;;;;;6.33;5.73;;;9.80;99.90;;;;;;10503770;28;20540;-78
2023/02/12 14:24:50;;;;;;;6.43;5.83;;;9.80;99.90;;;;;;10495262;28;20304;-78
2023/02/12 14:30:25;;;;;;;6.10;5.60;;;10.00;99.70;;;;;;10466980;28;20204;-78
2023/02/12 14:35:37;;;;;;;4.80;4.43;;;9.90;99.90;;;;;;10480813;28;20307;-79
2023/02/12 14:40:45;;;;;;;6.07;5.37;;;9.90;99.90;;;;;;10512965;28;20219;-79
2023/02/12 14:45:47;;;;;;;5.80;5.40;;;10.00;99.40;;;;;;10486907;28;20261;-80
2023/02/12 14:50:52;;;;;;;6.13;5.63;;;10.10;99.60;;;;;;10501068;28;20228;-79
2023/02/12 14:55:56;;;;;;;5.63;5.23;;;10.00;99.90;;;;;;10483672;28;20245;-79
2023/02/12 15:01:01;;;;;;;6.13;5.63;;;10.00;99.60;;;;;;10503881;28;20223;-79
2023/02/12 15:06:08;;;;;;;6.70;5.83;;;10.00;99.70;;;;;;10496144;28;20209;-80
2023/02/12 15:11:23;;;;;;;16.73;7.57;;;10.00;99.70;;;;;;10483193;28;20668;-79
2023/02/12 15:16:44;;;;;;;7.53;6.50;;;10.00;99.90;;;;;;10514656;28;20213;-80
2023/02/12 15:21:53;;;;;;;10.50;9.40;;;9.90;99.90;;;;;;10494738;28;20217;-79
2023/02/12 15:26:59;;;;;;;11.53;9.33;;;9.80;99.90;;;;;;10523174;28;20208;-79
2023/02/12 15:32:05;;;;;;;13.30;9.73;;;9.80;99.90;;;;;;10504909;28;20219;-79
2023/02/12 15:37:09;;;;;;;7.27;6.60;;;9.70;99.90;;;;;;10518033;28;20204;-79
2023/02/12 15:42:28;;;;;;;5.70;5.23;;;9.60;99.90;;;;;;10496386;28;20220;-80
2023/02/12 15:47:30;;;;;;;5.63;5.23;;;9.60;99.90;;;;;;10482582;28;20196;-80
2023/02/12 15:52:35;;;;;;;5.60;5.20;;;9.60;99.90;;;;;;10461258;28;20727;-79
2023/02/12 15:57:56;;;;;;;6.30;5.70;;;9.60;99.90;;;;;;10480455;28;20207;-79
2023/02/12 16:02:58;;;;;;;5.60;5.17;;;9.60;99.90;;;;;;10475311;28;20697;-80
2023/02/12 16:08:17;;;;;;;4.87;4.47;;;9.60;99.90;;;;;;10502030;28;20256;-78
2023/02/12 16:13:27;;;;;;;5.60;5.10;;;9.60;99.90;;;;;;10509946;28;20219;-79
2023/02/12 16:18:29;;;;;;;5.67;5.17;;;9.50;99.90;;;;;;10518760;28;20209;-79
2023/02/12 16:23:31;;;;;;;5.07;4.67;;;9.50;99.90;;;;;;10503095;28;20541;-79
2023/02/12 16:28:36;;;;;;;4.87;4.47;;;9.40;99.90;;;;;;10486160;28;20192;-81
2023/02/12 16:33:47;;;;;;;5.17;4.87;;;9.20;99.90;;;;;;10524989;28;20217;-80
2023/02/12 16:38:50;;;;;;;6.30;5.80;;;9.10;99.90;;;;;;10501069;28;20219;-81
2023/02/12 16:44:28;;;;;;;5.80;5.23;;;9.00;99.90;;;;;;10494943;28;20205;-78
2023/02/12 16:49:34;;;;;;;5.83;5.27;;;8.80;99.90;;;;;;10481605;28;20210;-80
2023/02/12 16:54:36;;;;;;;6.03;5.53;;;8.70;99.90;;;;;;10516532;28;20239;-81
2023/02/12 16:59:42;;;;;;;5.57;5.17;;;8.60;99.90;;;;;;10523705;28;20228;-77
2023/02/12 17:04:45;;;;;;;6.70;6.10;;;8.50;99.90;;;;;;10518563;28;20222;-78
2023/02/12 17:09:48;;;;;;;5.93;5.43;;;8.40;99.90;;;;;;10512905;28;20209;-79
2023/02/12 17:14:55;;;;;;;7.37;6.73;;;8.40;99.90;;;;;;10495294;28;20192;-80
2023/02/12 17:20:00;;;;;;;6.97;6.37;;;8.30;99.90;;;;;;10502344;28;20206;-79
2023/02/12 17:25:02;;;;;;;7.87;7.20;;;8.20;99.90;;;;;;10486459;28;20245;-79
2023/02/12 17:30:05;;;;;;;7.33;6.73;;;8.20;99.90;;;;;;10495963;28;20186;-81
2023/02/12 17:35:09;;;;;;;10.47;9.37;;;8.10;99.90;;;;;;10501155;28;20648;-79
2023/02/12 17:40:12;;;;;;;9.93;9.03;;;8.00;99.90;;;;;;10506274;28;20258;-80
2023/02/12 17:45:14;;;;;;;10.87;9.87;;;8.00;99.90;;;;;;10509187;28;20317;-77
2023/02/12 17:50:19;;;;;;;10.00;9.10;;;7.90;99.90;;;;;;10505400;28;20195;-79
2023/02/12 17:55:21;;;;;;;10.63;9.20;;;7.80;99.90;;;;;;10502286;28;20224;-78
2023/02/12 18:00:24;;;;;;;12.33;11.20;;;7.70;99.90;;;;;;10495615;28;20267;-79
2023/02/12 18:05:27;;;;;;;13.63;12.07;;;7.70;99.90;;;;;;10480652;28;20297;-79
2023/02/12 18:10:29;;;;;;;13.33;12.03;;;7.60;99.90;;;;;;10492066;28;20188;-79
2023/02/12 18:15:32;;;;;;;10.53;9.60;;;7.50;99.90;;;;;;10505250;28;20222;-79
2023/02/12 18:20:36;;;;;;;12.10;10.90;;;7.40;99.90;;;;;;10469955;28;20684;-78
2023/02/12 18:25:40;;;;;;;12.50;11.20;;;7.30;99.90;;;;;;10471222;28;20306;-79
2023/02/12 18:30:42;;;;;;;11.17;10.17;;;7.20;99.90;;;;;;10489975;28;20657;-79
2023/02/12 18:35:57;;;;;;;11.70;10.60;;;7.20;99.90;;;;;;10488092;28;20241;-79
2023/02/12 18:40:59;;;;;;;13.47;12.10;;;7.10;99.90;;;;;;10480979;28;20220;-79
2023/02/12 18:46:05;;;;;;;11.10;10.00;;;7.00;99.90;;;;;;10477826;28;20277;-79
2023/02/12 18:51:10;;;;;;;11.57;10.47;;;6.90;99.90;;;;;;10494701;28;20271;-78
2023/02/12 18:56:13;;;;;;;13.07;11.70;;;6.90;99.90;;;;;;10476212;28;20232;-78
2023/02/12 19:01:16;;;;;;;15.07;13.50;;;6.90;99.90;;;;;;10478585;28;20221;-79
2023/02/12 19:06:19;;;;;;;14.80;13.13;;;6.90;99.90;;;;;;10488764;28;20240;-78
2023/02/12 19:11:23;;;;;;;24.90;18.67;;;6.90;99.90;;;;;;10493758;28;20191;-80
2023/02/12 19:16:26;;;;;;;16.23;13.90;;;6.90;99.90;;;;;;10474040;28;20221;-78
2023/02/12 19:21:30;;;;;;;12.97;11.67;;;7.00;99.90;;;;;;10490039;28;20241;-79
2023/02/12 19:26:33;;;;;;;19.17;16.07;;;6.90;99.90;;;;;;10467194;28;20282;-80
2023/02/12 19:31:38;;;;;;;16.37;14.10;;;6.90;99.90;;;;;;10475123;28;20228;-79
2023/02/12 19:36:42;;;;;;;15.10;13.80;;;6.70;99.90;;;;;;10495301;28;20221;-79
2023/02/12 19:41:45;;;;;;;15.53;13.93;;;6.60;99.90;;;;;;10491723;28;20906;-77
2023/02/12 19:46:48;;;;;;;17.30;15.60;;;6.60;99.90;;;;;;10489533;28;20301;-79
2023/02/12 19:51:52;;;;;;;14.97;13.47;;;6.50;99.90;;;;;;10475479;28;20209;-78
2023/02/12 19:56:55;;;;;;;14.33;12.87;;;6.40;99.90;;;;;;10481709;28;20249;-78
2023/02/12 20:01:57;;;;;;;12.90;11.53;;;6.40;99.90;;;;;;10466681;28;20512;-77
2023/02/12 20:07:01;;;;;;;13.90;11.77;;;6.30;99.90;;;;;;10466440;28;20322;-78
2023/02/12 20:12:03;;;;;;;13.03;11.77;;;6.20;99.90;;;;;;10499308;28;20209;-76
2023/02/12 20:17:05;;;;;;;13.73;12.23;;;6.10;99.90;;;;;;10490561;28;20247;-78
2023/02/12 20:22:09;;;;;;;13.07;11.87;;;6.10;99.90;;;;;;10473096;28;20231;-77
2023/02/12 20:27:11;;;;;;;12.87;11.67;;;6.00;99.90;;;;;;10449144;28;20649;-77
2023/02/12 20:32:13;;;;;;;12.77;11.47;;;5.90;99.90;;;;;;10430710;28;20219;-77
2023/02/12 20:37:17;;;;;;;12.57;11.33;;;5.90;99.90;;;;;;10450265;28;20192;-76
2023/02/12 20:42:19;;;;;;;10.90;9.90;;;5.80;99.90;;;;;;10449297;28;20322;-77
2023/02/12 20:47:27;;;;;;;12.33;11.13;;;5.70;99.90;;;;;;10446097;28;20201;-78
2023/02/12 20:52:30;;;;;;;12.40;11.30;;;5.70;99.90;;;;;;10454271;28;20214;-77
2023/02/12 20:57:33;;;;;;;12.63;11.33;;;5.70;99.90;;;;;;10440005;28;20222;-77
2023/02/12 21:02:37;;;;;;;13.80;12.40;;;5.70;99.90;;;;;;10456570;28;20270;-78
2023/02/12 21:07:41;;;;;;;14.20;12.70;;;5.50;99.90;;;;;;10454448;28;20244;-77
2023/02/12 21:12:43;;;;;;;13.00;11.70;;;5.50;99.90;;;;;;10454267;28;20218;-78
2023/02/12 21:17:45;;;;;;;14.07;12.70;;;5.40;99.90;;;;;;10455993;28;20626;-77
2023/02/12 21:22:49;;;;;;;14.07;12.50;;;5.40;99.90;;;;;;10457206;28;20222;-77
2023/02/12 21:27:51;;;;;;;12.90;11.70;;;5.30;99.90;;;;;;10455007;28;20205;-77
2023/02/12 21:32:53;;;;;;;13.30;12.00;;;5.30;99.90;;;;;;10455225;28;20255;-77
2023/02/12 21:37:56;;;;;;;13.53;12.13;;;5.20;99.90;;;;;;10453857;28;20202;-76
2023/02/12 21:42:59;;;;;;;17.97;15.93;;;5.30;99.90;;;;;;10451723;28;20696;-78
2023/02/12 21:48:01;;;;;;;13.80;12.30;;;5.20;99.90;;;;;;10456396;28;20192;-78
2023/02/12 21:53:04;;;;;;;14.20;12.70;;;5.10;99.90;;;;;;10460495;28;20277;-77
2023/02/12 21:58:06;;;;;;;22.60;19.07;;;5.10;99.90;;;;;;10456369;28;20229;-78
2023/02/12 22:03:08;;;;;;;15.50;13.27;;;5.00;99.90;;;;;;10455859;28;20226;-79
2023/02/12 22:08:12;;;;;;;15.20;13.60;;;5.00;99.90;;;;;;10455328;28;20655;-80
2023/02/12 22:13:14;;;;;;;15.40;13.73;;;5.00;99.90;;;;;;10438617;28;20588;-78
2023/02/12 22:18:16;;;;;;;39.30;32.90;;;5.10;99.90;;;;;;10456485;28;20197;-78
2023/02/12 22:23:19;;;;;;;14.43;13.03;;;5.00;99.90;;;;;;10438813;28;20312;-77
2023/02/12 22:28:22;;;;;;;27.87;24.87;;;5.00;99.90;;;;;;10456566;28;20647;-77
2023/02/12 22:33:24;;;;;;;14.40;13.00;;;5.00;99.90;;;;;;10456954;28;20216;-78
2023/02/12 22:38:27;;;;;;;20.53;18.43;;;5.00;99.90;;;;;;10438430;28;20234;-78
2023/02/12 22:43:30;;;;;;;19.23;15.77;;;5.00;99.90;;;;;;10420823;28;20220;-78
2023/02/12 22:48:32;;;;;;;22.23;20.03;;;5.00;99.90;;;;;;10460602;28;20286;-77
2023/02/12 22:53:35;;;;;;;15.80;14.10;;;5.00;99.90;;;;;;10425347;28;20574;-78
2023/02/12 22:58:38;;;;;;;19.17;15.80;;;5.00;99.90;;;;;;10436304;28;20226;-79
2023/02/12 23:03:41;;;;;;;16.50;14.67;;;4.90;99.90;;;;;;10449912;28;20229;-77
2023/02/12 23:08:47;;;;;;;18.07;15.30;;;4.90;99.90;;;;;;10428936;28;20665;-77
2023/02/12 23:13:49;;;;;;;17.47;15.73;;;4.90;99.90;;;;;;10445287;28;20216;-78
2023/02/12 23:18:55;;;;;;;18.10;16.10;;;4.90;99.90;;;;;;10420303;28;20656;-78
2023/02/12 23:23:59;;;;;;;20.03;17.03;;;4.80;99.90;;;;;;10460471;28;20248;-78
2023/02/12 23:29:01;;;;;;;17.30;15.50;;;4.80;99.90;;;;;;10481539;28;20203;-78
2023/02/12 23:34:03;;;;;;;20.70;17.50;;;4.70;99.90;;;;;;10496733;28;20628;-78
2023/02/12 23:39:08;;;;;;;19.80;17.00;;;4.70;99.90;;;;;;10494882;28;20599;-78
2023/02/12 23:44:10;;;;;;;19.10;17.10;;;4.70;99.90;;;;;;10510763;28;20216;-78
2023/02/12 23:49:12;;;;;;;21.07;18.33;;;4.70;99.90;;;;;;10481678;28;20203;-78
2023/02/12 23:54:15;;;;;;;22.40;19.27;;;4.70;99.90;;;;;;10493694;28;20217;-78
2023/02/12 23:59:17;;;;;;;21.10;18.10;;;4.60;99.90;;;;;;10498664;28;20227;-77
